Date,TemperatureHighF,TemperatureAvgF,TemperatureLowF,DewpointHighF,DewpointAvgF,DewpointLowF,HumidityHigh,HumidityAvg,HumidityLow,PressureMaxIn,PressureMinIn,WindSpeedMaxMPH,WindSpeedAvgMPH,GustSpeedMaxMPH,PrecipitationSumIn
2013-12-1,56.9,35.5,30.1,38.1,28.8,22.9,97,78,43,30.37,30.03,6,0,7,0.00
2013-12-2,55.6,39.6,34.0,40.8,34.4,31.0,91,82,55,30.03,29.80,6,0,6,0.00
2013-12-3,55.4,48.3,40.6,47.7,44.2,39.1,97,86,71,29.92,29.84,8,1,8,0.01
2013-12-4,64.4,54.7,46.8,53.6,49.9,45.3,97,84,66,30.02,29.91,13,1,13,0.00
2013-12-5,69.0,58.1,53.4,61.1,55.0,50.9,98,90,69,30.05,29.93,6,1,8,0.21
2013-12-6,69.3,61.6,50.9,61.5,59.9,49.3,98,94,75,30.01,29.86,14,1,14,0.42
2013-12-7,50.9,40.9,37.0,50.2,39.6,36.1,98,95,91,30.33,29.95,8,0,8,0.00
2013-12-8,45.7,41.7,37.1,45.1,40.1,36.3,99,94,85,30.31,30.15,10,1,10,0.14
2013-12-9,52.3,48.5,41.3,52.0,47.7,40.2,99,97,91,30.18,30.00,11,0,11,0.13
2013-12-10,48.7,37.2,24.7,46.8,35.1,21.6,99,92,77,30.35,29.90,13,1,13,0.28
2013-12-11,49.9,28.0,21.3,30.0,20.0,11.3,90,75,25,30.49,30.33,10,0,10,0.00
2013-12-12,35.9,28.1,23.4,21.6,16.5,7.2,84,63,31,30.46,30.36,12,1,12,0.00
2013-12-13,50.3,31.5,20.2,26.3,17.4,9.7,84,58,26,30.44,30.26,5,0,6,0.00
2013-12-14,47.1,42.4,39.1,44.9,35.5,17.8,99,78,39,30.28,29.76,14,1,14,0.43
2013-12-15,42.3,33.0,27.5,41.9,30.8,25.5,99,92,87,30.16,29.75,17,1,17,0.03
2013-12-16,52.4,32.9,26.7,34.2,27.8,24.8,95,83,42,30.25,30.14,6,0,6,0.01
2013-12-17,56.7,39.7,34.4,35.6,31.1,22.4,81,72,42,30.17,29.94,19,1,19,0.00
2013-12-18,45.6,33.5,24.9,23.2,15.3,4.3,80,50,21,30.33,30.10,13,1,13,0.00
2013-12-19,62.8,45.0,33.3,30.8,24.3,12.7,70,46,25,30.35,30.19,6,0,7,0.00
2013-12-20,64.2,51.1,41.2,46.2,28.7,19.8,83,42,31,30.20,30.07,6,1,8,0.00
2013-12-21,62.2,56.8,49.9,60.1,53.6,45.4,96,89,81,30.11,29.92,17,2,17,0.07
2013-12-22,62.6,57.2,53.5,60.4,55.9,52.4,99,96,86,30.02,29.89,19,1,19,2.38
2013-12-23,55.5,48.0,32.1,55.0,46.8,29.8,99,95,84,30.22,29.95,13,1,15,0.23
2013-12-24,32.0,26.1,18.2,29.9,21.5,15.0,92,83,70,30.46,30.21,12,1,12,0.00
2013-12-25,41.4,26.1,16.9,21.2,16.6,10.5,91,71,33,30.54,30.38,6,0,7,0.00
2013-12-26,46.5,33.1,24.0,25.2,22.4,18.1,86,67,39,30.42,30.31,10,0,11,0.00
2013-12-27,50.1,36.0,26.4,28.8,23.0,18.9,86,61,32,30.50,30.37,7,0,9,0.00
2013-12-28,49.5,38.4,29.7,41.6,28.7,18.8,98,71,31,30.44,30.07,5,0,6,0.26
2013-12-29,48.1,42.3,37.5,44.9,40.0,34.3,99,92,79,30.07,29.82,10,1,12,0.20
2013-12-30,41.7,37.3,31.6,38.1,34.4,28.7,95,89,82,30.18,30.00,10,0,10,0.00
2013-12-31,36.9,31.2,27.0,30.1,22.5,18.8,91,71,50,30.41,30.15,11,0,13,0.00